createdAt,value
2018-09-08T00:00:27.595Z,4.30
2018-09-08T00:02:55.728Z,3.90
2018-09-08T00:05:23.855Z,3.80
2018-09-08T00:07:51.992Z,4.10
2018-09-08T00:10:20.104Z,4.33
2018-09-08T00:12:48.227Z,3.90
2018-09-08T00:15:21.904Z,3.70
2018-09-08T00:17:55.626Z,3.90
2018-09-08T00:20:29.264Z,4.23
2018-09-08T00:23:02.939Z,3.90
2018-09-08T00:25:36.565Z,4.17
2018-09-08T00:28:11.164Z,3.63
2018-09-08T00:30:39.259Z,4.33
2018-09-08T00:33:07.365Z,3.83
2018-09-08T00:35:35.484Z,3.60
2018-09-08T00:38:03.595Z,3.33
2018-09-08T00:40:31.697Z,3.70
2018-09-08T00:42:59.805Z,3.93
2018-09-08T00:45:27.899Z,4.03
2018-09-08T00:47:56.020Z,3.57
2018-09-08T00:50:24.222Z,4.10
2018-09-08T00:52:52.334Z,3.40
2018-09-08T00:55:20.438Z,3.07
2018-09-08T00:57:48.559Z,3.80
2018-09-08T01:00:16.659Z,3.70
2018-09-08T01:02:44.879Z,3.37
2018-09-08T01:05:12.997Z,3.73
2018-09-08T01:07:41.125Z,3.30
2018-09-08T01:10:09.236Z,3.50
2018-09-08T01:12:37.354Z,3.60
2018-09-08T01:15:06.064Z,3.80
2018-09-08T01:17:34.178Z,3.50
2018-09-08T01:20:02.290Z,2.87
2018-09-08T01:22:30.536Z,3.77
2018-09-08T01:24:59.110Z,4.03
2018-09-08T01:27:27.253Z,2.97
2018-09-08T01:29:55.374Z,3.83
2018-09-08T01:32:23.470Z,3.20
2018-09-08T01:34:51.619Z,3.50
2018-09-08T01:37:19.757Z,3.30
2018-09-08T01:39:47.930Z,3.80
2018-09-08T01:42:22.115Z,3.60
2018-09-08T01:44:50.251Z,3.77
2018-09-08T01:47:18.358Z,3.97
2018-09-08T01:49:46.487Z,3.33
2018-09-08T01:52:27.063Z,4.43
2018-09-08T01:54:55.177Z,3.80
2018-09-08T01:57:23.283Z,3.70
2018-09-08T01:59:51.426Z,3.23
2018-09-08T02:02:19.503Z,3.87
2018-09-08T02:04:47.748Z,3.37
2018-09-08T02:07:15.869Z,3.87
2018-09-08T02:09:43.978Z,3.67
2018-09-08T02:12:12.087Z,3.80
2018-09-08T02:14:40.197Z,3.33
2018-09-08T02:17:08.319Z,3.23
2018-09-08T02:19:36.451Z,3.83
2018-09-08T02:22:04.555Z,3.73
2018-09-08T02:24:32.672Z,4.47
2018-09-08T02:27:00.768Z,4.03
2018-09-08T02:29:28.894Z,4.37
2018-09-08T02:31:57.000Z,4.87
2018-09-08T02:34:25.109Z,5.00
2018-09-08T02:36:53.247Z,4.40
2018-09-08T02:39:21.362Z,6.27
2018-09-08T02:41:49.459Z,4.00
2018-09-08T02:44:17.642Z,4.33
2018-09-08T02:46:45.745Z,4.63
2018-09-08T02:49:13.846Z,4.10
2018-09-08T02:51:41.022Z,3.40
2018-09-08T02:54:08.225Z,3.60
2018-09-08T02:56:35.392Z,4.43
2018-09-08T02:59:02.574Z,4.70
2018-09-08T03:01:29.743Z,4.60
2018-09-08T03:03:56.920Z,4.57
2018-09-08T03:06:24.079Z,4.00
2018-09-08T03:08:51.251Z,4.40
2018-09-08T03:11:18.420Z,4.30
2018-09-08T03:13:45.611Z,5.20
2018-09-08T03:16:12.786Z,5.30
2018-09-08T03:18:39.963Z,5.20
2018-09-08T03:21:07.155Z,5.10
2018-09-08T03:23:34.322Z,5.43
2018-09-08T03:26:01.500Z,5.33
2018-09-08T03:28:28.677Z,5.27
2018-09-08T03:30:55.856Z,4.47
2018-09-08T03:33:23.014Z,4.70
2018-09-08T03:35:50.200Z,5.07
2018-09-08T03:38:17.384Z,3.80
2018-09-08T03:40:44.555Z,4.27
2018-09-08T03:43:11.720Z,3.63
2018-09-08T03:45:38.902Z,3.70
2018-09-08T03:48:06.070Z,3.57
2018-09-08T03:50:33.247Z,4.30
2018-09-08T03:53:00.438Z,3.53
2018-09-08T03:55:27.620Z,3.80
2018-09-08T03:57:54.785Z,3.50
2018-09-08T04:00:21.966Z,3.57
2018-09-08T04:02:50.106Z,3.90
2018-09-08T04:05:18.222Z,4.87
2018-09-08T04:07:46.344Z,4.30
2018-09-08T04:10:14.478Z,3.73
2018-09-08T04:12:42.668Z,4.33
2018-09-08T04:15:10.787Z,4.30
2018-09-08T04:17:38.952Z,3.90
2018-09-08T04:20:07.082Z,3.83
2018-09-08T04:22:35.844Z,4.17
2018-09-08T04:25:05.135Z,4.10
2018-09-08T04:27:33.225Z,4.70
2018-09-08T04:30:01.353Z,4.10
2018-09-08T04:32:29.445Z,3.77
2018-09-08T04:34:57.603Z,4.03
2018-09-08T04:37:25.696Z,3.10
2018-09-08T04:39:53.819Z,3.23
2018-09-08T04:42:21.934Z,3.00
2018-09-08T04:44:50.335Z,4.20
2018-09-08T04:47:18.471Z,3.70
2018-09-08T04:49:46.572Z,3.10
2018-09-08T04:52:14.658Z,3.33
2018-09-08T04:54:42.806Z,3.50
2018-09-08T04:57:10.923Z,3.47
2018-09-08T04:59:39.043Z,3.50
2018-09-08T05:02:07.151Z,3.20
2018-09-08T05:04:35.308Z,3.40
2018-09-08T05:07:03.475Z,3.40
2018-09-08T05:09:31.622Z,4.30
2018-09-08T05:11:59.731Z,3.13
2018-09-08T05:14:27.869Z,3.20
2018-09-08T05:16:56.000Z,2.60
2018-09-08T05:19:24.157Z,3.30
2018-09-08T05:21:58.712Z,3.37
2018-09-08T05:24:26.858Z,3.17
2018-09-08T05:26:54.972Z,3.53
2018-09-08T05:29:23.108Z,3.60
2018-09-08T05:31:51.234Z,3.37
2018-09-08T05:34:19.416Z,3.10
2018-09-08T05:36:47.533Z,2.80
2018-09-08T05:39:15.667Z,3.20
2018-09-08T05:41:43.830Z,2.93
2018-09-08T05:44:11.937Z,3.20
2018-09-08T05:46:40.047Z,3.50
2018-09-08T05:49:08.752Z,2.60
2018-09-08T05:51:36.865Z,3.20
2018-09-08T05:54:05.076Z,2.70
2018-09-08T05:56:33.203Z,3.13
2018-09-08T05:59:01.327Z,3.67
2018-09-08T06:01:29.491Z,3.03
2018-09-08T06:03:57.610Z,3.10
2018-09-08T06:06:25.813Z,3.77
2018-09-08T06:08:54.411Z,2.93
2018-09-08T06:11:22.587Z,3.20
2018-09-08T06:13:50.698Z,2.63
2018-09-08T06:16:18.859Z,2.90
2018-09-08T06:18:47.009Z,2.70
2018-09-08T06:21:15.131Z,2.80
2018-09-08T06:23:43.846Z,2.97
2018-09-08T06:26:11.636Z,2.60
2018-09-08T06:28:39.893Z,2.33
2018-09-08T06:31:07.899Z,2.60
2018-09-08T06:33:36.708Z,3.10
2018-09-08T06:36:05.484Z,3.33
2018-09-08T06:38:33.647Z,3.10
2018-09-08T06:41:01.774Z,3.30
2018-09-08T06:43:30.000Z,3.00
2018-09-08T06:45:58.141Z,2.70
2018-09-08T06:48:26.262Z,2.80
2018-09-08T06:50:54.395Z,3.03
2018-09-08T06:53:22.539Z,3.30
2018-09-08T06:55:50.649Z,3.47
2018-09-08T06:58:18.827Z,3.03
2018-09-08T07:00:47.910Z,4.00
2018-09-08T07:03:16.074Z,2.70
2018-09-08T07:05:44.152Z,2.50
2018-09-08T07:08:12.267Z,2.70
2018-09-08T07:10:40.374Z,2.27
2018-09-08T07:13:08.479Z,2.70
2018-09-08T07:15:36.596Z,2.30
2018-09-08T07:18:04.811Z,3.13
2018-09-08T07:20:32.929Z,3.00
2018-09-08T07:23:01.023Z,2.33
2018-09-08T07:25:29.108Z,2.73
2018-09-08T07:27:57.212Z,2.30
2018-09-08T07:30:25.294Z,2.73
2018-09-08T07:32:53.425Z,2.67
2018-09-08T07:35:21.533Z,2.23
2018-09-08T07:37:49.669Z,2.60
2018-09-08T07:40:17.800Z,2.03
2018-09-08T07:42:45.905Z,2.50
2018-09-08T07:45:13.992Z,2.20
2018-09-08T07:47:42.370Z,2.40
2018-09-08T07:50:10.664Z,1.93
2018-09-08T07:52:38.802Z,1.93
2018-09-08T07:55:06.923Z,2.60
2018-09-08T07:57:35.144Z,2.87
2018-09-08T08:00:03.292Z,2.40
2018-09-08T08:02:31.407Z,2.60
2018-09-08T08:04:59.532Z,2.80
2018-09-08T08:07:27.621Z,1.90
2018-09-08T08:09:55.918Z,2.70
2018-09-08T08:12:24.052Z,3.07
2018-09-08T08:14:52.284Z,1.93
2018-09-08T08:17:20.395Z,1.90
2018-09-08T08:19:48.506Z,2.17
2018-09-08T08:22:16.626Z,2.20
2018-09-08T08:24:44.747Z,2.40
2018-09-08T08:27:12.847Z,2.40
2018-09-08T08:29:41.127Z,2.60
2018-09-08T08:32:09.260Z,2.30
2018-09-08T08:34:37.377Z,2.40
2018-09-08T08:37:05.577Z,2.47
2018-09-08T08:39:33.606Z,2.40
2018-09-08T08:42:01.742Z,1.70
2018-09-08T08:44:29.895Z,2.50
2018-09-08T08:46:58.040Z,1.77
2018-09-08T08:49:26.172Z,2.13
2018-09-08T08:52:05.738Z,2.80
2018-09-08T08:54:43.411Z,1.97
2018-09-08T08:57:11.526Z,1.80
2018-09-08T08:59:39.683Z,1.90
2018-09-08T09:02:07.806Z,1.43
2018-09-08T09:04:35.934Z,1.70
2018-09-08T09:07:04.441Z,1.30
2018-09-08T09:09:32.929Z,1.40
2018-09-08T09:12:01.166Z,1.30
2018-09-08T09:14:30.014Z,1.30
2018-09-08T09:16:57.937Z,1.60
2018-09-08T09:19:38.947Z,1.33
2018-09-08T09:22:21.056Z,1.60
2018-09-08T09:25:07.939Z,1.40
2018-09-08T09:27:38.475Z,1.67
2018-09-08T09:30:07.683Z,1.30
2018-09-08T09:32:35.786Z,1.43
2018-09-08T09:35:03.915Z,1.77
2018-09-08T09:37:32.040Z,1.60
2018-09-08T09:40:00.500Z,1.43
2018-09-08T09:42:28.935Z,1.23
2018-09-08T09:44:57.129Z,1.77
2018-09-08T09:47:25.279Z,2.20
2018-09-08T09:49:53.502Z,1.67
2018-09-08T09:52:21.706Z,1.93
2018-09-08T09:54:49.939Z,1.63
2018-09-08T09:57:18.062Z,1.80
2018-09-08T09:59:46.171Z,1.60
2018-09-08T10:02:45.078Z,1.67
2018-09-08T10:05:22.586Z,1.80
2018-09-08T10:07:51.062Z,1.30
2018-09-08T10:10:22.155Z,1.80
2018-09-08T10:12:50.407Z,1.43
2018-09-08T10:15:18.578Z,2.30
2018-09-08T10:17:46.891Z,1.60
2018-09-08T10:20:16.345Z,2.33
2018-09-08T10:22:44.486Z,1.17
2018-09-08T10:25:14.051Z,1.53
2018-09-08T10:27:42.947Z,1.30
2018-09-08T10:30:11.611Z,1.53
2018-09-08T10:32:40.266Z,1.77
2018-09-08T10:35:08.410Z,2.50
2018-09-08T10:37:36.609Z,1.90
2018-09-08T10:40:04.748Z,1.47
2018-09-08T10:42:32.908Z,1.30
2018-09-08T10:45:01.032Z,1.30
2018-09-08T10:47:29.149Z,1.63
2018-09-08T10:49:57.252Z,1.63
2018-09-08T10:52:30.518Z,1.67
2018-09-08T10:54:58.635Z,2.00
2018-09-08T10:57:26.755Z,1.43
2018-09-08T10:59:54.915Z,1.63
2018-09-08T11:02:23.425Z,1.47
2018-09-08T11:04:51.208Z,1.10
2018-09-08T11:07:19.353Z,1.67
2018-09-08T11:09:47.466Z,1.97
2018-09-08T11:12:15.676Z,1.50
2018-09-08T11:14:43.871Z,1.60
2018-09-08T11:17:12.009Z,2.53
2018-09-08T11:19:40.116Z,1.50
2018-09-08T11:22:08.241Z,1.43
2018-09-08T11:24:36.358Z,1.83
2018-09-08T11:27:04.488Z,1.70
2018-09-08T11:29:32.626Z,1.40
2018-09-08T11:32:00.753Z,1.70
2018-09-08T11:34:28.865Z,1.60
2018-09-08T11:36:57.033Z,1.47
2018-09-08T11:39:25.146Z,1.10
2018-09-08T11:41:53.274Z,1.67
2018-09-08T11:44:21.382Z,1.40
2018-09-08T11:46:49.499Z,1.03
2018-09-08T11:49:17.618Z,1.67
2018-09-08T11:51:46.839Z,1.23
2018-09-08T11:54:14.983Z,2.00
2018-09-08T11:56:43.144Z,1.20
2018-09-08T11:59:11.276Z,1.10
2018-09-08T12:01:39.393Z,1.43
2018-09-08T12:04:07.807Z,1.60
2018-09-08T12:06:36.062Z,1.10
2018-09-08T12:09:05.936Z,1.50
2018-09-08T12:11:34.059Z,1.43
2018-09-08T12:14:02.251Z,1.53
2018-09-08T12:16:30.270Z,1.30
2018-09-08T12:18:58.419Z,1.27
2018-09-08T12:21:26.496Z,1.10
2018-09-08T12:23:54.607Z,1.13
2018-09-08T12:26:22.718Z,1.50
2018-09-08T12:28:50.838Z,1.43
2018-09-08T12:31:18.947Z,2.03
2018-09-08T12:33:47.055Z,1.37
2018-09-08T12:36:15.178Z,1.20
2018-09-08T12:38:43.402Z,1.30
2018-09-08T12:41:11.473Z,1.43
2018-09-08T12:43:39.571Z,1.57
2018-09-08T12:46:07.684Z,1.13
2018-09-08T12:48:35.881Z,1.13
2018-09-08T12:51:04.004Z,1.30
2018-09-08T12:53:32.111Z,1.20
2018-09-08T12:56:00.247Z,1.00
2018-09-08T12:58:28.483Z,1.00
2018-09-08T13:00:56.596Z,1.03
2018-09-08T13:03:24.712Z,0.93
2018-09-08T13:05:52.802Z,1.00
2018-09-08T13:08:20.920Z,1.20
2018-09-08T13:10:49.034Z,1.03
2018-09-08T13:13:17.166Z,1.20
2018-09-08T13:15:45.287Z,1.13
2018-09-08T13:18:13.394Z,1.10
2018-09-08T13:20:41.608Z,1.10
2018-09-08T13:23:09.704Z,1.17
2018-09-08T13:25:37.833Z,1.03
2018-09-08T13:28:05.960Z,1.50
2018-09-08T13:30:34.080Z,1.03
2018-09-08T13:33:02.416Z,1.40
2018-09-08T13:35:30.544Z,1.10
2018-09-08T13:37:58.639Z,1.30
2018-09-08T13:40:26.896Z,1.87
2018-09-08T13:42:54.993Z,0.90
2018-09-08T13:45:23.117Z,1.23
2018-09-08T13:47:51.241Z,1.30
2018-09-08T13:50:19.360Z,1.70
2018-09-08T13:52:47.543Z,1.27
2018-09-08T13:55:15.647Z,1.50
2018-09-08T13:57:43.783Z,1.33
2018-09-08T14:00:11.901Z,1.07
2018-09-08T14:02:40.020Z,1.47
2018-09-08T14:05:08.158Z,1.83
2018-09-08T14:07:36.435Z,1.00
2018-09-08T14:10:04.559Z,1.20
2018-09-08T14:12:32.686Z,1.50
2018-09-08T14:15:00.795Z,1.37
2018-09-08T14:17:28.947Z,1.27
2018-09-08T14:19:57.054Z,1.27
2018-09-08T14:22:25.182Z,0.80
2018-09-08T14:24:53.291Z,1.40
2018-09-08T14:27:21.452Z,1.17
2018-09-08T14:29:49.576Z,1.63
2018-09-08T14:32:17.683Z,0.97
2018-09-08T14:34:45.818Z,1.20
2018-09-08T14:37:13.927Z,0.90
2018-09-08T14:39:42.047Z,1.13
2018-09-08T14:42:10.170Z,1.00
2018-09-08T14:44:38.351Z,1.17
2018-09-08T14:47:06.491Z,1.03
2018-09-08T14:49:34.595Z,1.90
2018-09-08T14:52:02.742Z,1.20
2018-09-08T14:54:30.856Z,1.27
2018-09-08T14:56:59.208Z,0.90
2018-09-08T14:59:27.276Z,1.20
2018-09-08T15:01:55.385Z,1.60
2018-09-08T15:04:23.497Z,1.03
2018-09-08T15:06:51.600Z,1.10
2018-09-08T15:09:19.717Z,1.20
2018-09-08T15:11:47.860Z,1.17
2018-09-08T15:14:15.987Z,1.53
2018-09-08T15:16:44.094Z,0.90
2018-09-08T15:19:12.198Z,1.10
2018-09-08T15:21:40.324Z,1.30
2018-09-08T15:24:08.451Z,1.20
2018-09-08T15:26:36.644Z,1.40
2018-09-08T15:29:04.738Z,1.07
2018-09-08T15:31:32.849Z,1.40
2018-09-08T15:34:00.978Z,1.23
2018-09-08T15:36:29.092Z,0.97
2018-09-08T15:38:57.283Z,1.00
2018-09-08T15:41:25.439Z,1.10
2018-09-08T15:43:53.575Z,1.00
2018-09-08T15:46:21.687Z,1.03
2018-09-08T15:48:49.827Z,1.07
2018-09-08T15:51:17.937Z,1.10
2018-09-08T15:53:46.068Z,1.10
2018-09-08T15:56:14.182Z,1.43
2018-09-08T15:58:42.541Z,1.10
2018-09-08T16:01:10.611Z,1.13
2018-09-08T16:03:38.752Z,1.17
2018-09-08T16:06:06.888Z,1.10
2018-09-08T16:08:35.211Z,1.10
2018-09-08T16:11:03.311Z,1.37
2018-09-08T16:13:31.409Z,1.00
2018-09-08T16:15:59.506Z,1.33
2018-09-08T16:18:27.650Z,0.70
2018-09-08T16:20:55.740Z,1.13
2018-09-08T16:23:23.841Z,0.90
2018-09-08T16:25:51.945Z,1.40
2018-09-08T16:28:20.055Z,1.30
2018-09-08T16:30:48.146Z,1.00
2018-09-08T16:33:16.252Z,0.90
2018-09-08T16:35:44.356Z,1.30
2018-09-08T16:38:12.571Z,0.80
2018-09-08T16:40:40.750Z,1.23
2018-09-08T16:43:08.882Z,1.03
2018-09-08T16:45:36.990Z,0.80
2018-09-08T16:48:05.291Z,1.33
2018-09-08T16:50:33.389Z,1.07
2018-09-08T16:53:01.509Z,0.77
2018-09-08T16:55:29.942Z,1.10
2018-09-08T16:57:58.198Z,1.27
2018-09-08T17:00:26.263Z,1.20
2018-09-08T17:02:54.359Z,1.00
2018-09-08T17:05:22.493Z,1.40
2018-09-08T17:07:50.589Z,1.23
2018-09-08T17:10:18.761Z,1.10
2018-09-08T17:12:46.907Z,0.80
2018-09-08T17:15:15.031Z,1.10
2018-09-08T17:17:43.248Z,1.07
2018-09-08T17:20:11.383Z,1.10
2018-09-08T17:22:39.495Z,0.90
2018-09-08T17:25:07.607Z,1.50
2018-09-08T17:27:35.738Z,1.13
2018-09-08T17:30:03.860Z,0.90
2018-09-08T17:32:31.986Z,1.10
2018-09-08T17:35:00.107Z,1.13
2018-09-08T17:37:28.255Z,0.87
2018-09-08T17:39:56.450Z,1.10
2018-09-08T17:42:24.583Z,1.10
2018-09-08T17:44:52.710Z,1.07
2018-09-08T17:47:20.839Z,1.10
2018-09-08T17:49:48.969Z,1.27
2018-09-08T17:52:17.118Z,1.50
2018-09-08T17:54:45.229Z,0.93
2018-09-08T17:57:13.385Z,1.00
2018-09-08T17:59:41.548Z,1.10
2018-09-08T18:02:09.674Z,0.93
2018-09-08T18:04:37.914Z,1.03
2018-09-08T18:07:06.021Z,1.17
2018-09-08T18:09:34.142Z,1.20
2018-09-08T18:12:02.239Z,1.40
2018-09-08T18:14:30.390Z,1.60
2018-09-08T18:16:58.488Z,1.30
2018-09-08T18:19:26.589Z,1.30
2018-09-08T18:21:54.686Z,1.03
2018-09-08T18:24:22.791Z,1.00
2018-09-08T18:26:50.907Z,1.20
2018-09-08T18:29:19.003Z,1.27
2018-09-08T18:31:47.121Z,1.10
2018-09-08T18:34:15.224Z,1.20
2018-09-08T18:36:43.355Z,1.17
2018-09-08T18:39:11.442Z,1.27
2018-09-08T18:41:39.530Z,1.00
2018-09-08T18:44:07.626Z,1.20
2018-09-08T18:46:35.720Z,1.00
2018-09-08T18:49:03.819Z,1.33
2018-09-08T18:51:31.958Z,1.00
2018-09-08T18:54:00.116Z,1.40
2018-09-08T18:56:28.139Z,1.10
2018-09-08T18:58:56.326Z,2.03
2018-09-08T19:01:24.446Z,1.50
2018-09-08T19:03:52.575Z,1.47
2018-09-08T19:06:20.866Z,1.20
2018-09-08T19:08:48.975Z,1.10
2018-09-08T19:11:17.192Z,0.97
2018-09-08T19:13:45.220Z,1.13
2018-09-08T19:16:13.340Z,1.80
2018-09-08T19:18:41.482Z,1.80
2018-09-08T19:21:09.607Z,2.03
2018-09-08T19:23:37.713Z,1.90
2018-09-08T19:26:05.899Z,1.70
2018-09-08T19:28:34.019Z,1.30
2018-09-08T19:31:02.130Z,1.13
2018-09-08T19:33:30.231Z,1.60
2018-09-08T19:35:58.359Z,1.60
2018-09-08T19:38:26.473Z,1.60
2018-09-08T19:40:54.585Z,1.40
2018-09-08T19:43:22.703Z,6.10
2018-09-08T19:45:51.020Z,14.37
2018-09-08T19:48:20.602Z,12.20
2018-09-08T19:50:48.815Z,11.67
2018-09-08T19:53:22.391Z,6.30
2018-09-08T19:55:50.817Z,3.10
2018-09-08T19:58:24.355Z,2.90
2018-09-08T20:00:52.466Z,3.80
2018-09-08T20:03:20.647Z,2.53
2018-09-08T20:05:48.776Z,3.20
2018-09-08T20:08:16.875Z,3.33
2018-09-08T20:10:44.969Z,3.73
2018-09-08T20:13:13.070Z,2.60
2018-09-08T20:15:41.221Z,2.20
2018-09-08T20:18:09.327Z,2.57
2018-09-08T20:20:37.435Z,2.20
2018-09-08T20:23:05.577Z,2.40
2018-09-08T20:25:33.782Z,1.70
2018-09-08T20:28:01.879Z,2.03
2018-09-08T20:30:30.058Z,1.50
2018-09-08T20:32:58.175Z,1.90
2018-09-08T20:35:26.266Z,1.80
2018-09-08T20:37:54.368Z,1.87
2018-09-08T20:40:22.455Z,2.07
2018-09-08T20:42:50.614Z,2.00
2018-09-08T20:45:18.711Z,1.80
2018-09-08T20:47:46.814Z,2.03
2018-09-08T20:50:14.929Z,2.27
2018-09-08T20:52:43.059Z,1.77
2018-09-08T20:55:11.167Z,1.93
2018-09-08T20:57:39.258Z,2.20
2018-09-08T21:00:07.360Z,2.03
2018-09-08T21:02:35.452Z,2.00
2018-09-08T21:05:03.556Z,2.40
2018-09-08T21:07:31.680Z,2.17
2018-09-08T21:09:59.787Z,1.87
2018-09-08T21:12:28.035Z,1.80
2018-09-08T21:14:56.139Z,1.67
2018-09-08T21:17:24.241Z,1.70
2018-09-08T21:19:52.362Z,2.10
2018-09-08T21:22:20.475Z,1.70
2018-09-08T21:24:48.598Z,1.83
2018-09-08T21:27:23.589Z,1.70
2018-09-08T21:29:51.726Z,1.70
2018-09-08T21:32:19.835Z,2.00
2018-09-08T21:34:47.934Z,2.00
2018-09-08T21:37:16.080Z,1.70
2018-09-08T21:39:44.205Z,1.90
2018-09-08T21:42:12.311Z,2.07
2018-09-08T21:44:40.449Z,2.07
2018-09-08T21:47:08.566Z,1.80
2018-09-08T21:49:36.698Z,1.90
2018-09-08T21:52:04.823Z,1.67
2018-09-08T21:54:33.003Z,1.90
2018-09-08T21:57:01.129Z,2.30
2018-09-08T21:59:29.248Z,1.90
2018-09-08T22:01:57.370Z,1.70
2018-09-08T22:04:25.549Z,2.37
2018-09-08T22:06:53.655Z,1.90
2018-09-08T22:09:21.779Z,2.00
2018-09-08T22:11:49.887Z,1.77
2018-09-08T22:14:18.019Z,2.37
2018-09-08T22:16:46.111Z,1.90
2018-09-08T22:19:14.235Z,1.70
2018-09-08T22:21:42.327Z,2.10
2018-09-08T22:24:10.423Z,2.10
2018-09-08T22:26:38.565Z,2.00
2018-09-08T22:29:06.667Z,1.90
2018-09-08T22:31:34.755Z,1.90
2018-09-08T22:34:02.859Z,1.63
2018-09-08T22:36:30.983Z,2.73
2018-09-08T22:38:59.161Z,2.17
2018-09-08T22:41:27.246Z,2.27
2018-09-08T22:43:55.379Z,2.17
2018-09-08T22:46:23.502Z,2.53
2018-09-08T22:48:51.641Z,2.60
2018-09-08T22:51:19.761Z,2.23
2018-09-08T22:53:47.847Z,1.90
2018-09-08T22:56:15.930Z,2.30
2018-09-08T22:58:44.039Z,2.03
2018-09-08T23:01:12.163Z,2.20
2018-09-08T23:03:40.272Z,1.70
2018-09-08T23:06:08.382Z,2.53
2018-09-08T23:08:36.481Z,2.40
2018-09-08T23:11:04.587Z,1.70
2018-09-08T23:13:32.694Z,2.10
2018-09-08T23:16:00.799Z,2.07
2018-09-08T23:18:28.908Z,2.40
2018-09-08T23:20:57.132Z,2.40
2018-09-08T23:23:25.235Z,2.47
2018-09-08T23:25:53.339Z,2.30
2018-09-08T23:28:21.434Z,2.10
2018-09-08T23:30:49.558Z,2.43
2018-09-08T23:33:17.658Z,2.10
2018-09-08T23:35:45.767Z,2.37
2018-09-08T23:38:13.878Z,2.77
2018-09-08T23:40:42.018Z,2.50
2018-09-08T23:43:10.110Z,1.90
2018-09-08T23:45:38.240Z,1.73
2018-09-08T23:48:06.339Z,2.67
2018-09-08T23:50:34.482Z,2.10
2018-09-08T23:53:02.548Z,2.13
2018-09-08T23:55:30.647Z,2.17
2018-09-08T23:57:58.722Z,2.33
